Time;durP1;ratioP1;P1;durP2;ratioP2;P2;SDS_P1;SDS_P2;PMS_P1;PMS_P2;Temp;Humidity;BMP_temperature;BMP_pressure;BME280_temperature;BME280_humidity;BME280_pressure;Samples;Min_cycle;Max_cycle;Signal;HPM_P1;HPM_P2
2021/09/04 00:00:14;;;;;;;13.03;10.33;;;;;;;16.74;75.94;101075.91;675370;29;4209;-84
2021/09/04 00:00:34;;;;;;;12.43;10.30;;;;;;;16.79;75.84;101075.78;676655;29;2166;-84
2021/09/04 00:00:55;;;;;;;11.90;9.83;;;;;;;16.81;75.44;101076.63;678021;29;1683;-83
2021/09/04 00:01:15;;;;;;;10.82;9.60;;;;;;;16.83;75.58;101073.03;677715;29;1175;-84
2021/09/04 00:01:36;;;;;;;11.87;10.13;;;;;;;16.77;75.67;101072.34;677350;29;4680;-83
2021/09/04 00:01:56;;;;;;;11.70;9.63;;;;;;;16.77;75.53;101070.56;678071;29;1543;-84
2021/09/04 00:02:16;;;;;;;11.68;9.98;;;;;;;16.80;75.84;101077.53;677967;29;1762;-84
2021/09/04 00:02:37;;;;;;;11.77;9.90;;;;;;;16.81;75.50;101076.63;677348;29;1627;-84
2021/09/04 00:02:57;;;;;;;12.65;10.07;;;;;;;16.78;75.49;101079.31;676152;29;4083;-84
2021/09/04 00:03:17;;;;;;;12.67;10.10;;;;;;;16.71;75.53;101072.47;675917;29;1425;-84
2021/09/04 00:03:39;;;;;;;13.18;10.73;;;;;;;16.68;75.50;101076.94;671749;29;2096;-84
2021/09/04 00:04:00;;;;;;;13.70;10.40;;;;;;;16.72;76.24;101082.97;674016;29;1374;-84
2021/09/04 00:04:20;;;;;;;11.20;9.85;;;;;;;16.73;76.00;101082.09;676237;29;1331;-84
2021/09/04 00:04:41;;;;;;;11.07;9.80;;;;;;;16.74;75.61;101083.81;670443;29;5251;-83
2021/09/04 00:05:01;;;;;;;11.82;10.05;;;;;;;16.77;75.78;101077.63;671293;29;1134;-84
2021/09/04 00:05:22;;;;;;;11.45;9.88;;;;;;;16.78;75.94;101068.75;672078;29;1062;-84
2021/09/04 00:05:42;;;;;;;13.67;10.10;;;;;;;16.79;75.68;101086.34;676472;29;1631;-84
2021/09/04 00:06:03;;;;;;;12.88;10.32;;;;;;;16.80;75.67;101073.09;673469;29;3954;-84
2021/09/04 00:06:23;;;;;;;12.70;10.40;;;;;;;16.82;75.45;101081.00;671355;29;3859;-84
2021/09/04 00:06:44;;;;;;;13.43;10.57;;;;;;;16.82;75.34;101076.59;675676;29;1495;-84
2021/09/04 00:07:05;;;;;;;13.07;10.20;;;;;;;16.82;75.45;101075.72;674040;29;2008;-84
2021/09/04 00:07:28;;;;;;;12.73;10.35;;;;;;;16.83;75.51;101090.66;674077;29;1672;-84
2021/09/04 00:07:51;;;;;;;11.68;9.93;;;;;;;16.84;75.48;101084.47;676982;29;4854;-84
2021/09/04 00:08:12;;;;;;;12.40;10.37;;;;;;;16.84;75.73;101074.78;677450;29;1274;-84
2021/09/04 00:08:34;;;;;;;11.70;9.52;;;;;;;16.85;75.38;101075.66;672752;29;1568;-84
2021/09/04 00:08:55;;;;;;;11.50;9.60;;;;;;;16.85;75.70;101075.66;674746;29;1637;-84
2021/09/04 00:09:18;;;;;;;10.93;9.77;;;;;;;16.83;75.33;101078.31;675697;29;1350;-84
2021/09/04 00:09:39;;;;;;;11.50;9.80;;;;;;;16.84;75.57;101081.84;672606;29;1399;-84
2021/09/04 00:10:00;;;;;;;13.00;9.60;;;;;;;16.83;75.45;101077.44;675248;29;1096;-84
2021/09/04 00:10:21;;;;;;;12.68;9.68;;;;;;;16.84;75.53;101081.84;677397;29;1529;-84
2021/09/04 00:10:43;;;;;;;11.98;9.35;;;;;;;16.84;75.35;101079.19;674679;29;5811;-84
2021/09/04 00:11:03;;;;;;;12.52;9.48;;;;;;;16.83;75.12;101094.16;671944;29;1322;-84
2021/09/04 00:11:24;;;;;;;12.15;9.55;;;;;;;16.84;75.19;101080.03;672433;29;1391;-84
2021/09/04 00:11:44;;;;;;;12.30;9.80;;;;;;;16.84;75.24;101076.56;672261;29;3371;-84
2021/09/04 00:12:08;;;;;;;12.18;9.70;;;;;;;16.84;74.98;101081.84;672680;29;1936;-84
2021/09/04 00:12:28;;;;;;;13.38;10.07;;;;;;;16.85;75.12;101079.16;672922;29;1978;-83
2021/09/04 00:12:50;;;;;;;12.63;9.90;;;;;;;16.85;75.25;101080.94;673407;29;1269;-84
2021/09/04 00:13:12;;;;;;;13.18;9.93;;;;;;;16.83;75.60;101078.31;677124;29;1603;-84
2021/09/04 00:13:33;;;;;;;12.23;10.20;;;;;;;16.82;75.33;101076.59;675633;29;4371;-83
2021/09/04 00:13:54;;;;;;;11.70;9.93;;;;;;;16.83;75.28;101083.59;675051;29;1945;-84
2021/09/04 00:14:17;;;;;;;11.63;9.65;;;;;;;16.82;75.48;101076.59;675922;29;2954;-84
2021/09/04 00:14:39;;;;;;;11.63;9.48;;;;;;;16.82;75.36;101088.91;676209;29;2388;-85
2021/09/04 00:15:00;;;;;;;12.47;9.77;;;;;;;16.82;75.13;101078.34;675040;29;1848;-83
2021/09/04 00:15:21;;;;;;;11.57;9.65;;;;;;;16.82;75.44;101081.00;675500;29;1502;-84
2021/09/04 00:15:43;;;;;;;12.55;9.52;;;;;;;16.82;75.28;101081.00;675180;29;1586;-84
2021/09/04 00:16:04;;;;;;;13.10;9.70;;;;;;;16.81;75.44;101085.41;671566;29;1596;-84
2021/09/04 00:16:25;;;;;;;11.80;9.52;;;;;;;16.82;75.24;101086.28;674784;29;1719;-84
2021/09/04 00:16:45;;;;;;;11.13;9.67;;;;;;;16.80;75.57;101082.81;674721;29;4326;-84
2021/09/04 00:17:05;;;;;;;11.32;9.88;;;;;;;16.81;75.60;101084.56;675678;29;1285;-84
2021/09/04 00:17:26;;;;;;;11.80;10.10;;;;;;;16.79;75.74;101086.34;674945;29;4336;-84
2021/09/04 00:17:46;;;;;;;11.30;9.43;;;;;;;16.78;75.81;101087.25;679567;29;1446;-83
2021/09/04 00:18:07;;;;;;;11.98;9.35;;;;;;;16.77;75.58;101082.91;672453;29;4114;-84
2021/09/04 00:18:30;;;;;;;13.13;9.73;;;;;;;16.78;75.57;101084.59;675147;29;1540;-84
2021/09/04 00:18:51;;;;;;;11.82;9.77;;;;;;;16.78;75.39;101089.88;672685;29;1305;-84
2021/09/04 00:19:11;;;;;;;12.30;9.60;;;;;;;16.78;75.42;101081.97;673015;29;1522;-84
2021/09/04 00:19:32;;;;;;;12.20;9.73;;;;;;;16.78;75.51;101079.31;674468;29;4503;-84
2021/09/04 00:19:52;;;;;;;12.50;10.30;;;;;;;16.78;75.42;101085.50;675162;29;1146;-84
2021/09/04 00:20:13;;;;;;;11.32;9.63;;;;;;;16.78;75.61;101081.97;673606;29;3491;-83
2021/09/04 00:20:33;;;;;;;11.60;9.68;;;;;;;16.78;76.14;101088.13;674975;29;1913;-84
2021/09/04 00:20:55;;;;;;;12.15;9.70;;;;;;;16.75;75.75;101084.69;678606;29;1930;-84
2021/09/04 00:21:15;;;;;;;10.57;9.33;;;;;;;16.73;76.08;101081.22;679937;29;1147;-84
2021/09/04 00:21:36;;;;;;;11.18;9.95;;;;;;;16.71;76.36;101077.75;679275;29;1224;-84
2021/09/04 00:21:56;;;;;;;11.30;9.70;;;;;;;16.71;76.02;101078.59;677390;29;1239;-84
2021/09/04 00:22:17;;;;;;;12.10;9.57;;;;;;;16.70;76.00;101082.16;674417;29;1284;-84
2021/09/04 00:22:37;;;;;;;11.55;9.52;;;;;;;16.65;77.08;101082.25;672062;29;4439;-84
2021/09/04 00:22:58;;;;;;;11.63;9.40;;;;;;;16.58;76.82;101093.00;672429;29;3951;-83
2021/09/04 00:23:18;;;;;;;10.93;9.23;;;;;;;16.50;77.15;101082.63;674781;29;1915;-84
2021/09/04 00:23:38;;;;;;;11.73;9.80;;;;;;;16.45;77.48;101084.50;677728;29;1926;-84
2021/09/04 00:23:59;;;;;;;13.30;10.07;;;;;;;16.38;78.34;101075.84;677648;29;1380;-84
2021/09/04 00:24:19;;;;;;;11.57;9.97;;;;;;;16.36;77.58;101077.66;675269;29;1319;-84
2021/09/04 00:24:39;;;;;;;11.80;9.27;;;;;;;16.39;77.33;101074.06;672589;29;1805;-84
2021/09/04 00:25:01;;;;;;;12.10;9.75;;;;;;;16.41;77.20;101081.06;672917;29;1455;-84
2021/09/04 00:25:21;;;;;;;11.90;9.73;;;;;;;16.42;77.23;101074.88;672379;29;1665;-84
2021/09/04 00:25:42;;;;;;;12.63;10.13;;;;;;;16.44;76.83;101080.13;673618;29;4347;-84
2021/09/04 00:26:02;;;;;;;12.20;10.00;;;;;;;16.41;77.39;101081.06;674670;29;2167;-84
2021/09/04 00:26:24;;;;;;;11.63;10.05;;;;;;;16.34;78.52;101085.59;677491;29;1331;-85
2021/09/04 00:26:45;;;;;;;11.88;10.15;;;;;;;16.31;77.89;101080.41;677559;29;1440;-84
2021/09/04 00:27:06;;;;;;;12.77;9.88;;;;;;;16.36;77.44;101082.91;677795;29;1978;-84
2021/09/04 00:27:27;;;;;;;13.90;10.02;;;;;;;16.40;77.58;101079.31;677471;29;1355;-84
2021/09/04 00:27:48;;;;;;;11.00;9.63;;;;;;;16.42;77.42;101076.63;680374;29;1316;-84
2021/09/04 00:28:08;;;;;;;12.48;9.52;;;;;;;16.44;77.42;101080.13;680040;29;1259;-84
2021/09/04 00:28:29;;;;;;;11.73;9.60;;;;;;;16.46;76.92;101078.31;677451;29;4401;-84
2021/09/04 00:28:49;;;;;;;11.00;9.57;;;;;;;16.47;76.92;101090.59;677586;29;4061;-84
2021/09/04 00:29:10;;;;;;;10.67;9.57;;;;;;;16.47;76.90;101080.91;677260;29;1413;-84
2021/09/04 00:29:30;;;;;;;11.95;9.80;;;;;;;16.47;77.15;101080.03;677365;29;1346;-84
2021/09/04 00:29:51;;;;;;;11.87;9.63;;;;;;;16.48;76.98;101092.34;677766;29;1322;-84
2021/09/04 00:30:11;;;;;;;11.93;10.02;;;;;;;16.44;77.78;101085.41;675228;29;1194;-84
2021/09/04 00:30:32;;;;;;;12.87;10.20;;;;;;;16.37;78.55;101084.66;674885;29;1056;-84
2021/09/04 00:30:52;;;;;;;13.00;9.87;;;;;;;16.38;77.57;101082.88;675055;29;1524;-84
2021/09/04 00:31:12;;;;;;;12.30;9.60;;;;;;;16.41;77.29;101081.06;677741;29;1178;-84
2021/09/04 00:31:33;;;;;;;11.43;9.55;;;;;;;16.45;77.18;101085.38;679483;29;4431;-84
2021/09/04 00:31:53;;;;;;;11.00;9.20;;;;;;;16.48;77.48;101087.06;680017;29;2998;-83
2021/09/04 00:32:14;;;;;;;11.77;9.70;;;;;;;16.46;77.20;101083.59;682468;28;1230;-84
2021/09/04 00:32:34;;;;;;;11.57;9.93;;;;;;;16.39;77.67;101085.47;679898;29;1290;-84
2021/09/04 00:32:54;;;;;;;11.68;10.20;;;;;;;16.32;78.19;101082.13;679000;29;1350;-84
2021/09/04 00:33:15;;;;;;;12.67;9.93;;;;;;;16.27;79.21;101089.28;675061;29;1152;-84
2021/09/04 00:33:35;;;;;;;12.20;9.53;;;;;;;16.21;79.02;101092.03;677679;29;1697;-84
2021/09/04 00:33:56;;;;;;;11.20;9.07;;;;;;;16.13;78.33;101086.03;679405;29;1218;-83
2021/09/04 00:34:16;;;;;;;11.03;9.50;;;;;;;16.09;78.74;101084.38;673552;29;2219;-84
2021/09/04 00:34:37;;;;;;;12.70;9.52;;;;;;;16.06;79.05;101092.34;671453;29;4391;-84
2021/09/04 00:34:57;;;;;;;10.70;9.43;;;;;;;16.05;79.36;101082.69;674529;29;1431;-84
2021/09/04 00:35:17;;;;;;;10.60;9.50;;;;;;;16.06;79.06;101076.53;674253;29;1344;-84
2021/09/04 00:35:38;;;;;;;10.47;9.30;;;;;;;16.11;78.91;101082.59;678412;29;1412;-84
2021/09/04 00:35:58;;;;;;;12.50;9.65;;;;;;;16.16;78.73;101086.00;676730;29;1281;-84
2021/09/04 00:36:21;;;;;;;12.57;9.47;;;;;;;16.20;78.29;101085.03;677111;29;1777;-84
2021/09/04 00:36:41;;;;;;;11.73;9.48;;;;;;;16.23;78.47;101084.97;677322;29;1277;-84
2021/09/04 00:37:03;;;;;;;11.27;9.50;;;;;;;16.24;78.37;101083.19;677699;29;3723;-84
2021/09/04 00:37:23;;;;;;;11.38;9.55;;;;;;;16.23;78.92;101074.41;677937;29;1513;-84
2021/09/04 00:37:44;;;;;;;11.77;9.40;;;;;;;16.17;79.57;101083.34;679275;29;4349;-84
2021/09/04 00:38:04;;;;;;;11.00;9.37;;;;;;;16.19;78.58;101079.81;676690;29;1458;-84
2021/09/04 00:38:25;;;;;;;11.87;9.80;;;;;;;16.24;78.15;101083.19;677941;29;1044;-84
2021/09/04 00:38:45;;;;;;;11.77;10.02;;;;;;;16.28;78.04;101079.59;677101;29;1260;-84
2021/09/04 00:39:06;;;;;;;12.40;9.80;;;;;;;16.32;77.87;101081.25;677340;29;1412;-84
2021/09/04 00:39:27;;;;;;;12.90;9.88;;;;;;;16.32;77.89;101086.53;677692;29;1765;-84
2021/09/04 00:39:47;;;;;;;11.65;10.07;;;;;;;16.31;77.95;101085.66;680455;29;2074;-84
2021/09/04 00:40:08;;;;;;;10.87;9.77;;;;;;;16.31;77.88;101085.66;679732;29;1422;-84
2021/09/04 00:40:29;;;;;;;11.25;9.85;;;;;;;16.33;77.96;101083.84;675814;29;3823;-84
2021/09/04 00:40:49;;;;;;;12.30;9.70;;;;;;;16.36;77.58;101087.34;671854;29;4325;-83
2021/09/04 00:41:09;;;;;;;12.27;9.57;;;;;;;16.38;77.40;101080.25;669850;29;1232;-84
2021/09/04 00:41:34;;;;;;;11.98;9.73;;;;;;;16.39;77.45;101082.84;675099;29;1433;-84
2021/09/04 00:41:54;;;;;;;13.40;9.82;;;;;;;16.42;77.29;101079.28;674984;29;1839;-84
2021/09/04 00:42:18;;;;;;;14.27;10.03;;;;;;;16.44;77.09;101082.75;675801;29;1091;-84
2021/09/04 00:42:38;;;;;;;12.38;9.70;;;;;;;16.45;77.11;101076.59;677435;29;3590;-84
2021/09/04 00:42:59;;;;;;;11.57;9.77;;;;;;;16.44;77.27;101078.34;677570;29;2407;-83
2021/09/04 00:43:19;;;;;;;11.67;9.53;;;;;;;16.44;76.97;101080.13;676137;29;1699;-84
2021/09/04 00:43:41;;;;;;;10.90;9.60;;;;;;;16.43;77.32;101088.94;674863;29;4415;-84
2021/09/04 00:44:05;;;;;;;12.43;10.05;;;;;;;16.38;77.36;101082.88;678034;29;1055;-84
2021/09/04 00:44:26;;;;;;;12.45;9.57;;;;;;;16.38;77.64;101090.81;676576;29;1232;-84
2021/09/04 00:44:47;;;;;;;12.60;10.07;;;;;;;16.34;77.69;101069.75;675339;29;1406;-85
2021/09/04 00:45:08;;;;;;;11.27;10.05;;;;;;;16.30;77.81;101081.28;675211;29;1277;-84
2021/09/04 00:45:28;;;;;;;12.32;10.18;;;;;;;16.23;78.74;101092.88;675628;29;3426;-84
2021/09/04 00:45:49;;;;;;;12.50;10.07;;;;;;;16.15;79.77;101089.53;674615;29;2253;-84
2021/09/04 00:46:10;;;;;;;11.15;9.82;;;;;;;16.05;79.68;101082.69;674578;29;1203;-84
2021/09/04 00:46:30;;;;;;;11.95;9.85;;;;;;;15.97;79.57;101088.16;674537;29;4394;-84
2021/09/04 00:47:00;;;;;;;12.48;10.27;;;;;;;15.91;79.86;101083.88;674918;29;1931;-84
2021/09/04 00:47:23;;;;;;;11.25;9.57;;;;;;;15.87;80.29;101082.19;675056;29;1326;-84
2021/09/04 00:47:56;;;;;;;10.95;9.70;;;;;;;15.79;80.80;101084.09;675491;29;1720;-84
2021/09/04 00:48:16;;;;;;;13.20;9.80;;;;;;;15.75;80.60;101092.94;678391;29;1398;-84
2021/09/04 00:48:38;;;;;;;12.55;10.00;;;;;;;15.72;81.15;101090.38;677783;29;1531;-84
2021/09/04 00:48:59;;;;;;;13.23;10.48;;;;;;;15.67;81.48;101082.53;677329;29;1288;-84
2021/09/04 00:49:19;;;;;;;12.68;10.15;;;;;;;15.63;81.69;101087.03;674351;29;1251;-83
2021/09/04 00:49:39;;;;;;;12.07;9.87;;;;;;;15.61;81.58;101086.16;679618;29;4414;-84
2021/09/04 00:50:00;;;;;;;11.07;9.88;;;;;;;15.58;81.69;101078.31;675047;29;1619;-84
2021/09/04 00:50:21;;;;;;;11.30;10.00;;;;;;;15.57;81.92;101084.50;676329;29;2491;-84
2021/09/04 00:50:41;;;;;;;11.02;9.85;;;;;;;15.57;82.11;101081.84;677623;29;1101;-84
2021/09/04 00:51:03;;;;;;;12.05;10.07;;;;;;;15.52;82.55;101081.09;677414;29;1227;-84
2021/09/04 00:51:23;;;;;;;12.63;10.43;;;;;;;15.49;82.74;101091.66;672575;29;3180;-84
2021/09/04 00:51:43;;;;;;;12.18;10.30;;;;;;;15.48;82.71;101085.53;672400;29;1676;-84
2021/09/04 00:52:05;;;;;;;12.77;10.33;;;;;;;15.47;82.60;101085.56;676130;29;1646;-84
2021/09/04 00:52:25;;;;;;;12.43;10.13;;;;;;;15.45;82.44;101087.34;674608;29;1359;-84
2021/09/04 00:52:46;;;;;;;12.20;10.20;;;;;;;15.43;82.84;101083.88;676619;29;4420;-84
2021/09/04 00:53:07;;;;;;;11.95;10.40;;;;;;;15.42;82.88;101082.13;677365;29;1348;-84
2021/09/04 00:53:28;;;;;;;11.88;10.02;;;;;;;15.41;82.61;101076.00;681115;29;1813;-84
2021/09/04 00:53:50;;;;;;;10.80;9.70;;;;;;;15.46;82.36;101083.81;678285;29;1824;-84
2021/09/04 00:54:10;;;;;;;10.93;9.70;;;;;;;15.52;81.70;101077.56;679868;29;3085;-84
2021/09/04 00:54:31;;;;;;;12.03;9.90;;;;;;;15.54;81.92;101079.28;679683;29;1631;-84
2021/09/04 00:54:52;;;;;;;12.23;9.65;;;;;;;15.55;81.69;101082.78;680001;29;1254;-84
2021/09/04 00:55:13;;;;;;;10.85;9.75;;;;;;;15.55;81.44;101075.75;680241;29;1368;-84
2021/09/04 00:55:34;;;;;;;11.05;9.85;;;;;;;15.60;81.32;101078.28;678884;29;4372;-84
2021/09/04 00:55:55;;;;;;;10.98;9.82;;;;;;;15.62;81.28;101074.75;677881;29;1411;-84
2021/09/04 00:56:16;;;;;;;11.50;9.95;;;;;;;15.62;81.65;101074.75;677547;29;1331;-84
2021/09/04 00:56:40;;;;;;;12.20;9.80;;;;;;;15.59;81.86;101080.06;677545;29;1476;-84
2021/09/04 00:57:01;;;;;;;11.73;9.80;;;;;;;15.56;81.62;101076.63;677190;29;2514;-84
2021/09/04 00:57:22;;;;;;;12.48;10.10;;;;;;;15.54;81.74;101087.19;677510;29;3918;-84
2021/09/04 00:57:42;;;;;;;11.30;9.30;;;;;;;15.52;81.82;101078.47;676125;29;3825;-83
2021/09/04 00:58:03;;;;;;;10.55;9.45;;;;;;;15.54;81.54;101075.78;677398;29;1563;-84
2021/09/04 00:58:25;;;;;;;11.60;9.93;;;;;;;15.50;82.31;101078.47;677741;29;1424;-84
2021/09/04 00:58:45;;;;;;;11.90;9.77;;;;;;;15.46;82.36;101073.28;679967;29;4409;-84
2021/09/04 00:59:08;;;;;;;12.07;10.18;;;;;;;15.40;83.14;101078.69;677582;29;1266;-84
2021/09/04 00:59:29;;;;;;;11.75;10.30;;;;;;;15.36;82.58;101077.00;677454;29;1439;-84
2021/09/04 00:59:51;;;;;;;11.82;10.00;;;;;;;15.36;82.59;101067.31;679983;29;4001;-84
2021/09/04 01:00:12;;;;;;;12.13;10.05;;;;;;;15.38;82.57;101069.91;676902;29;2306;-83
2021/09/04 01:00:33;;;;;;;11.63;10.27;;;;;;;15.40;82.31;101074.28;674176;29;1739;-84
2021/09/04 01:00:55;;;;;;;11.57;9.60;;;;;;;15.50;81.94;101080.25;672577;29;1633;-84
2021/09/04 01:01:15;;;;;;;10.85;9.57;;;;;;;15.51;81.72;101079.34;672568;29;1169;-84
2021/09/04 01:01:36;;;;;;;11.65;10.02;;;;;;;15.47;81.84;101073.25;674234;29;4401;-84
2021/09/04 01:01:58;;;;;;;10.80;9.70;;;;;;;15.46;82.06;101073.28;674783;29;1779;-84
2021/09/04 01:02:18;;;;;;;11.13;9.90;;;;;;;15.44;82.30;101081.22;675524;29;1815;-84
2021/09/04 01:02:39;;;;;;;11.88;9.98;;;;;;;15.41;82.24;101077.75;677798;29;2967;-84
2021/09/04 01:03:00;;;;;;;11.68;10.00;;;;;;;15.40;82.08;101076.03;679988;29;1768;-84
2021/09/04 01:03:21;;;;;;;12.18;10.07;;;;;;;15.41;81.74;101065.47;677392;29;1598;-84
2021/09/04 01:03:42;;;;;;;11.73;9.83;;;;;;;15.44;81.73;101075.94;674834;29;1875;-84
2021/09/04 01:04:02;;;;;;;10.63;9.53;;;;;;;15.44;81.92;101072.47;674854;29;1569;-84
2021/09/04 01:04:23;;;;;;;10.52;9.43;;;;;;;15.45;81.71;101071.53;675755;29;1298;-84
2021/09/04 01:04:44;;;;;;;11.65;9.77;;;;;;;15.46;81.80;101078.56;676728;29;4379;-84
2021/09/04 01:05:07;;;;;;;11.98;9.80;;;;;;;15.44;81.69;101069.81;675164;29;1401;-84
2021/09/04 01:05:27;;;;;;;12.13;9.90;;;;;;;15.44;81.69;101075.94;678209;29;2479;-84
2021/09/04 01:05:49;;;;;;;11.55;9.88;;;;;;;15.48;81.13;101076.78;677546;29;1254;-84
2021/09/04 01:06:14;;;;;;;11.13;9.93;;;;;;;15.50;81.13;101075.81;674386;29;1538;-84
2021/09/04 01:06:36;;;;;;;11.00;9.80;;;;;;;15.49;81.11;101074.09;673679;29;1207;-83
2021/09/04 01:06:57;;;;;;;11.20;10.00;;;;;;;15.48;81.19;101066.25;676325;29;1911;-84
2021/09/04 01:07:17;;;;;;;11.37;9.80;;;;;;;15.43;81.91;101083.88;681061;29;1403;-84
2021/09/04 01:07:39;;;;;;;11.52;10.23;;;;;;;15.36;82.79;101074.38;679616;29;4324;-84
2021/09/04 01:08:00;;;;;;;12.25;10.30;;;;;;;15.32;82.42;101076.16;677542;29;1692;-84
2021/09/04 01:08:21;;;;;;;12.38;10.13;;;;;;;15.31;82.22;101079.69;672013;29;1807;-84
2021/09/04 01:08:42;;;;;;;11.70;10.10;;;;;;;15.27;82.90;101081.53;677658;29;1640;-83
2021/09/04 01:09:05;;;;;;;11.18;10.05;;;;;;;15.27;82.36;101080.66;679139;29;1413;-84
2021/09/04 01:09:26;;;;;;;11.13;9.93;;;;;;;15.30;82.16;101081.47;677073;29;1902;-84
2021/09/04 01:09:46;;;;;;;11.65;10.05;;;;;;;15.30;82.21;101077.97;677446;29;1711;-84
2021/09/04 01:10:09;;;;;;;11.43;9.90;;;;;;;15.33;81.75;101077.91;674420;29;1641;-83
2021/09/04 01:10:31;;;;;;;11.38;10.18;;;;;;;15.37;81.57;101074.34;673801;29;4389;-83
2021/09/04 01:10:53;;;;;;;12.40;10.38;;;;;;;15.38;81.74;101081.34;674553;29;1265;-84
2021/09/04 01:11:14;;;;;;;13.05;10.20;;;;;;;15.35;82.14;101083.16;672104;29;2939;-84
2021/09/04 01:11:35;;;;;;;12.40;10.18;;;;;;;15.33;82.40;101076.13;672180;29;2012;-84
2021/09/04 01:11:56;;;;;;;11.98;10.38;;;;;;;15.28;82.59;101079.75;677643;29;1503;-84
2021/09/04 01:12:17;;;;;;;12.63;10.40;;;;;;;15.24;82.74;101073.66;674449;29;1621;-84
2021/09/04 01:12:38;;;;;;;11.95;10.38;;;;;;;15.22;82.87;101074.63;672592;29;1297;-84
2021/09/04 01:12:58;;;;;;;12.35;10.50;;;;;;;15.16;83.50;101078.22;672352;29;1611;-83
2021/09/04 01:13:20;;;;;;;13.10;10.23;;;;;;;15.13;83.87;101075.63;672686;29;1329;-84
2021/09/04 01:13:41;;;;;;;11.95;10.52;;;;;;;15.11;83.75;101077.41;673828;29;4346;-84
2021/09/04 01:14:03;;;;;;;12.05;10.57;;;;;;;15.12;83.64;101071.28;674700;29;1813;-83
2021/09/04 01:14:23;;;;;;;11.73;10.43;;;;;;;15.14;83.06;101078.22;671953;29;3758;-84
2021/09/04 01:14:43;;;;;;;11.63;10.43;;;;;;;15.16;82.75;101070.31;671799;29;1714;-84
2021/09/04 01:15:06;;;;;;;12.18;10.23;;;;;;;15.19;82.64;101078.16;671073;29;1322;-84
2021/09/04 01:15:27;;;;;;;12.00;10.07;;;;;;;15.20;82.68;101071.13;671933;29;1349;-85
2021/09/04 01:15:48;;;;;;;11.57;10.37;;;;;;;15.21;82.57;101070.22;669833;29;1202;-84
2021/09/04 01:16:08;;;;;;;12.15;10.48;;;;;;;15.19;82.80;101069.38;670047;29;1661;-83
2021/09/04 01:16:36;;;;;;;11.70;10.50;;;;;;;15.19;82.60;101069.38;667649;29;1550;-84
2021/09/04 01:16:56;;;;;;;12.48;10.77;;;;;;;15.16;83.01;101070.31;669263;29;4828;-84
2021/09/04 01:17:17;;;;;;;11.83;10.40;;;;;;;15.12;83.36;101072.13;671824;29;1506;-84
2021/09/04 01:17:37;;;;;;;12.48;10.57;;;;;;;15.12;83.40;101077.41;677319;29;1754;-84
2021/09/04 01:18:02;;;;;;;11.97;10.30;;;;;;;15.14;82.82;101069.47;679719;29;1480;-84
2021/09/04 01:18:23;;;;;;;11.32;10.00;;;;;;;15.17;82.72;101069.41;677279;29;1362;-83
2021/09/04 01:18:43;;;;;;;13.07;10.02;;;;;;;15.19;82.51;101072.00;677949;29;1502;-85
2021/09/04 01:19:05;;;;;;;13.57;10.75;;;;;;;15.17;82.89;101072.03;677323;29;1355;-84
2021/09/04 01:19:25;;;;;;;12.82;10.70;;;;;;;15.14;83.13;101074.72;674686;29;1318;-84
2021/09/04 01:19:46;;;;;;;12.15;10.63;;;;;;;15.08;83.18;101075.72;672226;29;4369;-84
2021/09/04 01:20:07;;;;;;;11.83;10.17;;;;;;;15.05;83.72;101077.50;677146;29;1792;-84
2021/09/04 01:20:28;;;;;;;11.10;10.00;;;;;;;15.02;83.60;101075.78;680287;29;1971;-84
2021/09/04 01:20:48;;;;;;;11.70;10.50;;;;;;;15.01;83.86;101070.56;682409;29;1328;-84
2021/09/04 01:21:09;;;;;;;12.23;10.90;;;;;;;14.96;84.25;101066.22;679298;29;1207;-84
2021/09/04 01:21:30;;;;;;;12.40;10.67;;;;;;;14.90;84.17;101068.97;674837;29;1236;-84
2021/09/04 01:21:50;;;;;;;12.57;10.45;;;;;;;14.92;84.01;101061.91;674898;29;1608;-84
2021/09/04 01:22:11;;;;;;;12.45;10.10;;;;;;;14.95;83.78;101064.53;672034;29;1476;-84
2021/09/04 01:22:32;;;;;;;11.70;10.07;;;;;;;14.94;83.84;101061.91;673614;29;4477;-84
2021/09/04 01:22:53;;;;;;;12.10;10.68;;;;;;;14.91;83.93;101065.47;674404;29;1705;-84
2021/09/04 01:23:13;;;;;;;12.40;10.93;;;;;;;14.93;83.57;101063.66;673563;29;1447;-84
2021/09/04 01:23:34;;;;;;;13.20;10.48;;;;;;;15.00;83.42;101064.44;676270;29;2352;-84
2021/09/04 01:23:55;;;;;;;11.85;9.95;;;;;;;15.07;82.78;101068.69;678088;29;1242;-84
2021/09/04 01:24:15;;;;;;;11.70;9.63;;;;;;;15.10;82.81;101067.78;677217;29;1453;-84
2021/09/04 01:24:36;;;;;;;12.20;10.10;;;;;;;15.10;82.80;101067.78;676819;29;1653;-84
2021/09/04 01:25:01;;;;;;;11.20;9.93;;;;;;;15.14;82.49;101062.41;677489;29;1535;-84
2021/09/04 01:25:25;;;;;;;11.98;10.07;;;;;;;15.21;82.00;101063.19;676385;29;3992;-84
2021/09/04 01:25:52;;;;;;;11.40;10.00;;;;;;;15.28;81.90;101059.53;670974;29;4404;-84
2021/09/04 01:26:12;;;;;;;11.45;10.20;;;;;;;15.30;81.62;101057.75;677199;29;1560;-84
2021/09/04 01:26:33;;;;;;;11.30;10.10;;;;;;;15.31;81.59;101067.41;679812;29;1131;-84
2021/09/04 01:26:54;;;;;;;11.43;10.18;;;;;;;15.32;81.72;101063.84;680465;29;1911;-84
2021/09/04 01:27:17;;;;;;;12.65;10.50;;;;;;;15.32;81.68;101061.22;677657;29;1368;-84
2021/09/04 01:27:39;;;;;;;12.55;10.70;;;;;;;15.38;81.52;101067.28;674942;29;1808;-84
2021/09/04 01:28:01;;;;;;;11.40;10.20;;;;;;;15.43;81.51;101060.19;675034;29;1206;-84
2021/09/04 01:28:22;;;;;;;13.70;10.60;;;;;;;15.40;81.72;101062.88;674528;29;1532;-84
2021/09/04 01:28:43;;;;;;;13.40;10.63;;;;;;;15.35;81.87;101055.03;676932;29;4315;-84
2021/09/04 01:29:04;;;;;;;11.83;10.50;;;;;;;15.36;81.41;101064.69;679768;29;1258;-84
2021/09/04 01:29:24;;;;;;;12.00;10.60;;;;;;;15.32;81.72;101066.50;674220;29;1792;-84
2021/09/04 01:29:45;;;;;;;13.40;10.40;;;;;;;15.32;81.14;101070.91;680131;29;1722;-84
2021/09/04 01:30:07;;;;;;;12.00;10.40;;;;;;;15.33;81.29;101064.75;680197;29;1893;-84
2021/09/04 01:30:29;;;;;;;11.80;10.57;;;;;;;15.28;81.97;101064.81;676551;29;1524;-84
2021/09/04 01:30:52;;;;;;;11.70;10.50;;;;;;;15.24;82.13;101063.13;674954;29;3366;-84
2021/09/04 01:31:12;;;;;;;11.77;10.30;;;;;;;15.24;82.04;101081.56;676305;29;1652;-84
2021/09/04 01:31:32;;;;;;;12.15;10.85;;;;;;;15.20;82.23;101061.44;672735;29;4454;-84
2021/09/04 01:31:53;;;;;;;12.30;10.73;;;;;;;15.17;83.02;101069.41;674974;29;1181;-84
2021/09/04 01:32:13;;;;;;;12.27;10.80;;;;;;;15.12;83.28;101068.63;673079;29;1335;-84
2021/09/04 01:32:34;;;;;;;12.47;10.50;;;;;;;15.08;83.29;101064.31;673222;29;1619;-84
2021/09/04 01:32:57;;;;;;;12.93;10.90;;;;;;;15.08;82.96;101069.59;673778;29;1254;-84
2021/09/04 01:33:17;;;;;;;12.32;10.73;;;;;;;15.09;82.85;101068.66;674072;29;1279;-84
2021/09/04 01:33:44;;;;;;;12.20;11.00;;;;;;;15.05;83.46;101067.88;674492;29;2367;-84
2021/09/04 01:34:05;;;;;;;12.48;11.18;;;;;;;15.02;83.56;101059.13;675554;29;1082;-84
2021/09/04 01:34:25;;;;;;;12.68;11.27;;;;;;;15.00;83.45;101060.94;674400;29;1439;-84
2021/09/04 01:34:45;;;;;;;13.17;11.03;;;;;;;14.98;83.24;101069.72;675714;29;4338;-84
2021/09/04 01:35:09;;;;;;;14.23;10.40;;;;;;;14.94;83.80;101057.50;676531;29;1745;-84
2021/09/04 01:35:29;;;;;;;14.02;11.00;;;;;;;14.92;84.24;101055.78;677707;29;1293;-84
2021/09/04 01:35:50;;;;;;;12.70;11.27;;;;;;;14.89;83.99;101067.25;677544;29;1308;-84
2021/09/04 01:36:29;;;;;;;11.60;10.40;;;;;;;14.88;83.96;101059.38;679968;29;1336;-84
2021/09/04 01:36:49;;;;;;;12.32;11.02;;;;;;;14.91;83.37;101069.84;677545;29;1720;-84
2021/09/04 01:37:10;;;;;;;12.15;10.85;;;;;;;14.89;84.00;101061.97;674966;29;1133;-84
2021/09/04 01:37:30;;;;;;;12.40;10.90;;;;;;;14.90;83.60;101063.72;674706;29;4364;-84
2021/09/04 01:37:51;;;;;;;11.70;10.40;;;;;;;14.91;83.19;101064.56;674987;29;1296;-84
2021/09/04 01:38:12;;;;;;;12.35;10.80;;;;;;;14.97;82.95;101064.50;674868;29;1280;-84
2021/09/04 01:38:32;;;;;;;12.57;11.03;;;;;;;14.98;83.04;101064.47;677494;29;1381;-83
2021/09/04 01:38:52;;;;;;;12.97;10.97;;;;;;;14.97;83.36;101070.63;677668;29;1290;-84
2021/09/04 01:39:13;;;;;;;12.38;10.63;;;;;;;14.93;83.55;101061.03;677657;29;1458;-84